createdAt,value
2023-01-29T00:00:15.635Z,102111.72
2023-01-29T00:02:43.405Z,102106.41
2023-01-29T00:05:26.620Z,102095.78
2023-01-29T00:07:56.408Z,102096.53
2023-01-29T00:10:24.245Z,102097.22
2023-01-29T00:12:52.988Z,102098.81
2023-01-29T00:15:20.755Z,102085.72
2023-01-29T00:17:48.340Z,102081.28
2023-01-29T00:20:16.462Z,102081.16
2023-01-29T00:22:44.173Z,102081.97
2023-01-29T00:25:13.004Z,102074.94
2023-01-29T00:27:40.531Z,102072.34
2023-01-29T00:30:13.199Z,102062.78
2023-01-29T00:32:41.335Z,102065.13
2023-01-29T00:35:10.274Z,102059.81
2023-01-29T00:37:38.213Z,102060.59
2023-01-29T00:40:06.977Z,102061.28
2023-01-29T00:42:53.649Z,102063.88
2023-01-29T00:45:21.289Z,102045.56
2023-01-29T00:47:48.858Z,102042.09
2023-01-29T00:50:16.835Z,102035.06
2023-01-29T00:52:44.599Z,102040.25
2023-01-29T00:55:13.097Z,102030.66
2023-01-29T00:57:41.982Z,102027.81
2023-01-29T01:00:12.583Z,102033.81
2023-01-29T01:02:57.415Z,102036.28
2023-01-29T01:05:25.314Z,102027.47
2023-01-29T01:07:56.922Z,102027.47
2023-01-29T01:10:26.264Z,102029.06
2023-01-29T01:12:58.118Z,102028.00
2023-01-29T01:15:27.753Z,102034.25
2023-01-29T01:17:55.827Z,102036.72
2023-01-29T01:20:23.785Z,102027.13
2023-01-29T01:22:53.997Z,102022.03
2023-01-29T01:25:22.091Z,102031.66
2023-01-29T01:27:53.407Z,102030.06
2023-01-29T01:30:23.054Z,102022.41
2023-01-29T01:32:50.747Z,102014.75
2023-01-29T01:35:18.522Z,102018.47
2023-01-29T01:37:46.025Z,102023.78
2023-01-29T01:40:18.438Z,102024.13
2023-01-29T01:42:48.632Z,102015.66
2023-01-29T01:45:20.737Z,102017.59
2023-01-29T01:47:53.550Z,102038.72
2023-01-29T01:50:25.096Z,102043.34
2023-01-29T01:52:56.389Z,102038.50
2023-01-29T01:55:27.456Z,102037.03
2023-01-29T01:57:59.257Z,102031.44
2023-01-29T02:00:27.833Z,102038.66
2023-01-29T02:03:14.286Z,102033.81
2023-01-29T02:06:00.324Z,102027.94
2023-01-29T02:08:50.711Z,102024.88
2023-01-29T02:11:18.987Z,102026.03
2023-01-29T02:13:47.079Z,102014.06
2023-01-29T02:16:14.688Z,102020.38
2023-01-29T02:18:43.570Z,102011.13
2023-01-29T02:21:42.686Z,102005.47
2023-01-29T02:24:27.474Z,102003.97
2023-01-29T02:27:04.049Z,102001.75
2023-01-29T02:29:41.833Z,102000.38
2023-01-29T02:32:18.307Z,101997.22
2023-01-29T02:35:13.452Z,101993.16
2023-01-29T02:37:51.399Z,101988.25
2023-01-29T02:40:27.242Z,101988.59
2023-01-29T02:43:02.743Z,101991.44
2023-01-29T02:45:36.592Z,101999.56
2023-01-29T02:48:04.451Z,101994.69
2023-01-29T02:50:38.259Z,101985.28
2023-01-29T02:53:11.586Z,101991.63
2023-01-29T02:55:45.265Z,101986.53
2023-01-29T02:58:18.059Z,101998.06
2023-01-29T03:00:49.149Z,101992.16
2023-01-29T03:03:20.419Z,102002.81
2023-01-29T03:05:57.035Z,102001.22
2023-01-29T03:08:37.185Z,101997.81
2023-01-29T03:11:07.198Z,102008.34
2023-01-29T03:13:45.049Z,102006.84
2023-01-29T03:16:21.080Z,102003.44
2023-01-29T03:18:54.612Z,102007.09
2023-01-29T03:21:44.301Z,102013.28
2023-01-29T03:24:32.204Z,102017.00
2023-01-29T03:27:21.368Z,102013.72
2023-01-29T03:30:09.119Z,102012.94
2023-01-29T03:32:51.924Z,102017.44
2023-01-29T03:35:33.382Z,102006.34
2023-01-29T03:38:02.148Z,102002.16
2023-01-29T03:40:36.068Z,101999.66
2023-01-29T03:43:12.500Z,101998.88
2023-01-29T03:45:51.294Z,102003.47
2023-01-29T03:48:30.109Z,101985.25
2023-01-29T03:51:03.109Z,101992.41
2023-01-29T03:53:44.142Z,101998.50
2023-01-29T03:56:24.760Z,101991.69
2023-01-29T03:58:59.834Z,101986.69
2023-01-29T04:01:47.509Z,101982.50
2023-01-29T04:04:24.577Z,101977.41
2023-01-29T04:06:54.082Z,101979.22
2023-01-29T04:09:26.223Z,101969.81
2023-01-29T04:11:59.969Z,101969.09
2023-01-29T04:14:27.926Z,101964.91
2023-01-29T04:17:01.151Z,101957.19
2023-01-29T04:19:35.786Z,101950.41
2023-01-29T04:22:07.023Z,101941.78
2023-01-29T04:24:35.525Z,101932.38
2023-01-29T04:27:15.952Z,101932.38
2023-01-29T04:29:58.363Z,101916.84
2023-01-29T04:32:33.007Z,101907.38
2023-01-29T04:35:18.937Z,101906.53
2023-01-29T04:37:54.476Z,101913.56
2023-01-29T04:40:27.094Z,101909.97
2023-01-29T04:43:05.423Z,101909.03
2023-01-29T04:45:41.515Z,101907.38
2023-01-29T04:48:23.866Z,101909.97
2023-01-29T04:50:58.862Z,101892.53
2023-01-29T04:53:36.521Z,101888.91
2023-01-29T04:56:11.649Z,101875.78
2023-01-29T04:58:43.424Z,101876.59
2023-01-29T05:01:15.270Z,101877.41
2023-01-29T05:03:47.895Z,101874.69
2023-01-29T05:06:19.294Z,101871.09
2023-01-29T05:08:48.878Z,101872.75
2023-01-29T05:11:17.421Z,101865.66
2023-01-29T05:13:45.329Z,101858.53
2023-01-29T05:16:17.792Z,101855.03
2023-01-29T05:18:45.554Z,101864.47
2023-01-29T05:21:13.587Z,101866.97
2023-01-29T05:23:53.013Z,101867.75
2023-01-29T05:26:39.744Z,101867.75
2023-01-29T05:29:07.361Z,101865.13
2023-01-29T05:31:34.904Z,101860.03
2023-01-29T05:34:02.413Z,101860.94
2023-01-29T05:36:30.755Z,101854.16
2023-01-29T05:38:59.634Z,101849.84
2023-01-29T05:41:27.155Z,101864.75
2023-01-29T05:43:58.416Z,101860.47
2023-01-29T05:46:26.304Z,101861.47
2023-01-29T05:48:54.178Z,101864.16
2023-01-29T05:51:21.873Z,101866.88
2023-01-29T05:53:49.397Z,101869.47
2023-01-29T05:56:18.467Z,101873.88
2023-01-29T05:58:46.033Z,101868.66
2023-01-29T06:01:15.816Z,101877.50
2023-01-29T06:03:43.678Z,101882.72
2023-01-29T06:06:11.418Z,101886.22
2023-01-29T06:08:39.015Z,101888.22
2023-01-29T06:11:09.360Z,101890.91
2023-01-29T06:13:38.679Z,101889.19
2023-01-29T06:16:07.593Z,101890.25
2023-01-29T06:18:36.669Z,101890.34
2023-01-29T06:21:06.078Z,101893.03
2023-01-29T06:23:34.173Z,101910.47
2023-01-29T06:26:01.920Z,101921.88
2023-01-29T06:28:29.501Z,101914.88
2023-01-29T06:31:11.529Z,101926.31
2023-01-29T06:33:48.037Z,101940.22
2023-01-29T06:36:15.615Z,101940.31
2023-01-29T06:38:43.171Z,101947.34
2023-01-29T06:41:12.288Z,101945.63
2023-01-29T06:43:39.985Z,101944.84
2023-01-29T06:46:09.513Z,101942.34
2023-01-29T06:48:37.125Z,101945.97
2023-01-29T06:51:05.661Z,101938.25
2023-01-29T06:53:34.460Z,101934.94
2023-01-29T06:56:02.160Z,101929.03
2023-01-29T06:58:29.698Z,101937.75
2023-01-29T07:01:04.180Z,101932.75
2023-01-29T07:03:33.159Z,101932.03
2023-01-29T07:06:00.746Z,101933.75
2023-01-29T07:08:28.636Z,101933.97
2023-01-29T07:11:00.818Z,101929.75
2023-01-29T07:13:28.454Z,101922.91
2023-01-29T07:16:00.284Z,101916.94
2023-01-29T07:18:28.053Z,101918.81
2023-01-29T07:20:57.650Z,101909.50
2023-01-29T07:23:26.097Z,101895.78
2023-01-29T07:25:53.616Z,101909.81
2023-01-29T07:28:21.489Z,101908.19
2023-01-29T07:30:49.081Z,101911.00
2023-01-29T07:33:16.662Z,101918.13
2023-01-29T07:35:44.482Z,101913.00
2023-01-29T07:38:13.347Z,101911.53
2023-01-29T07:40:41.036Z,101911.59
2023-01-29T07:43:10.226Z,101919.63
2023-01-29T07:45:40.514Z,101921.53
2023-01-29T07:48:11.662Z,101922.53
2023-01-29T07:50:40.234Z,101938.38
2023-01-29T07:53:08.365Z,101942.06
2023-01-29T07:55:37.197Z,101945.00
2023-01-29T07:58:05.360Z,101948.50
2023-01-29T08:00:33.384Z,101945.16
2023-01-29T08:03:05.279Z,101940.25
2023-01-29T08:05:33.273Z,101925.59
2023-01-29T08:08:07.064Z,101910.97
2023-01-29T08:10:36.679Z,101888.50
2023-01-29T08:13:05.181Z,101883.47
2023-01-29T08:15:33.404Z,101887.88
2023-01-29T08:18:02.376Z,101882.84
2023-01-29T08:20:30.102Z,101883.06
2023-01-29T08:23:02.048Z,101890.16
2023-01-29T08:25:30.520Z,101892.88
2023-01-29T08:28:00.577Z,101898.19
2023-01-29T08:30:29.427Z,101887.13
2023-01-29T08:32:57.018Z,101882.91
2023-01-29T08:35:25.172Z,101872.75
2023-01-29T08:37:56.778Z,101871.16
2023-01-29T08:40:25.090Z,101867.81
2023-01-29T08:42:52.747Z,101860.19
2023-01-29T08:45:21.653Z,101861.19
2023-01-29T08:47:50.510Z,101862.16
2023-01-29T08:50:18.840Z,101861.47
2023-01-29T08:52:47.038Z,101859.75
2023-01-29T08:55:15.225Z,101866.88
2023-01-29T08:57:43.044Z,101870.47
2023-01-29T09:00:12.468Z,101871.38
2023-01-29T09:02:41.547Z,101868.84
2023-01-29T09:05:10.223Z,101880.28
2023-01-29T09:07:37.927Z,101873.38
2023-01-29T09:10:06.196Z,101876.06
2023-01-29T09:12:33.757Z,101877.06
2023-01-29T09:15:01.381Z,101875.44
2023-01-29T09:17:28.991Z,101869.50
2023-01-29T09:19:58.677Z,101877.34
2023-01-29T09:22:26.362Z,101871.41
2023-01-29T09:24:53.876Z,101859.34
2023-01-29T09:27:21.474Z,101857.63
2023-01-29T09:29:49.047Z,101862.25
2023-01-29T09:32:23.229Z,101860.63
2023-01-29T09:35:00.830Z,101847.66
2023-01-29T09:37:28.369Z,101846.03
2023-01-29T09:39:55.886Z,101842.72
2023-01-29T09:42:27.735Z,101847.28
2023-01-29T09:45:03.787Z,101841.34
2023-01-29T09:47:35.591Z,101833.78
2023-01-29T09:50:08.015Z,101831.34
2023-01-29T09:52:39.851Z,101829.81
2023-01-29T09:55:13.385Z,101832.72
2023-01-29T09:57:46.775Z,101830.44
2023-01-29T10:00:17.584Z,101821.16
2023-01-29T10:03:00.115Z,101828.38
2023-01-29T10:05:46.708Z,101828.66
2023-01-29T10:08:41.920Z,101829.81
2023-01-29T10:11:22.446Z,101828.28
2023-01-29T10:13:57.809Z,101828.59
2023-01-29T10:16:42.348Z,101830.69
2023-01-29T10:19:21.201Z,101817.69
2023-01-29T10:22:05.559Z,101811.91
2023-01-29T10:24:38.869Z,101792.88
2023-01-29T10:27:16.061Z,101802.84
2023-01-29T10:29:45.319Z,101802.41
2023-01-29T10:32:16.421Z,101807.78
2023-01-29T10:34:48.427Z,101800.28
2023-01-29T10:37:21.530Z,101807.63
2023-01-29T10:39:49.106Z,101801.69
2023-01-29T10:42:28.205Z,101797.53
2023-01-29T10:45:13.931Z,101779.22
2023-01-29T10:48:36.328Z,101771.44
2023-01-29T10:51:15.578Z,101781.16
2023-01-29T10:54:08.803Z,101781.25
2023-01-29T10:56:54.018Z,101772.69
2023-01-29T10:59:37.765Z,101769.22
2023-01-29T11:02:15.775Z,101768.50
2023-01-29T11:04:43.305Z,101765.00
2023-01-29T11:07:11.529Z,101768.59
2023-01-29T11:09:45.032Z,101774.00
2023-01-29T11:12:16.029Z,101775.78
2023-01-29T11:14:47.224Z,101767.94
2023-01-29T11:17:19.024Z,101759.09
2023-01-29T11:19:48.539Z,101757.28
2023-01-29T11:22:19.817Z,101738.09
2023-01-29T11:25:09.866Z,101741.59
2023-01-29T11:27:44.447Z,101740.69
2023-01-29T11:30:20.271Z,101738.16
2023-01-29T11:32:52.354Z,101735.56
2023-01-29T11:35:24.911Z,101729.34
2023-01-29T11:37:52.974Z,101730.22
2023-01-29T11:40:41.522Z,101719.78
2023-01-29T11:43:31.178Z,101724.19
2023-01-29T11:46:02.536Z,101716.34
2023-01-29T11:48:40.296Z,101716.34
2023-01-29T11:51:09.557Z,101718.13
2023-01-29T11:53:40.052Z,101704.97
2023-01-29T11:56:19.930Z,101709.38
2023-01-29T11:58:49.807Z,101700.66
2023-01-29T12:01:24.320Z,101689.25
2023-01-29T12:03:54.938Z,101692.81
2023-01-29T12:06:24.676Z,101686.72
2023-01-29T12:08:58.251Z,101684.13
2023-01-29T12:11:30.306Z,101672.75
2023-01-29T12:13:59.341Z,101668.41
2023-01-29T12:16:34.705Z,101668.41
2023-01-29T12:19:10.101Z,101661.41
2023-01-29T12:21:45.757Z,101667.53
2023-01-29T12:24:26.893Z,101665.81
2023-01-29T12:27:01.999Z,101659.75
2023-01-29T12:29:37.630Z,101649.22
2023-01-29T12:32:13.666Z,101652.72
2023-01-29T12:34:49.288Z,101637.84
2023-01-29T12:37:23.450Z,101630.91
2023-01-29T12:39:52.917Z,101632.72
2023-01-29T12:42:23.865Z,101619.63
2023-01-29T12:44:56.010Z,101618.72
2023-01-29T12:47:28.930Z,101623.13
2023-01-29T12:49:58.922Z,101616.16
2023-01-29T12:52:38.435Z,101608.31
2023-01-29T12:55:12.359Z,101608.31
2023-01-29T12:57:47.631Z,101601.34
2023-01-29T13:00:20.619Z,101600.56
2023-01-29T13:02:54.761Z,101609.28
2023-01-29T13:05:26.035Z,101610.22
2023-01-29T13:07:59.156Z,101614.59
2023-01-29T13:10:30.832Z,101608.47
2023-01-29T13:13:03.644Z,101601.44
2023-01-29T13:15:35.580Z,101610.22
2023-01-29T13:18:21.487Z,101610.22
2023-01-29T13:20:50.815Z,101616.34
2023-01-29T13:23:22.570Z,101611.91
2023-01-29T13:25:52.658Z,101619.75
2023-01-29T13:28:24.492Z,101616.25
2023-01-29T13:31:15.154Z,101614.44
2023-01-29T13:33:45.065Z,101608.31
2023-01-29T13:36:21.032Z,101611.78
2023-01-29T13:38:57.217Z,101616.09
2023-01-29T13:41:33.703Z,101619.63
2023-01-29T13:44:03.177Z,101617.00
2023-01-29T13:46:31.611Z,101600.38
2023-01-29T13:49:04.747Z,101596.09
2023-01-29T13:51:37.473Z,101598.69
2023-01-29T13:54:08.636Z,101589.94
2023-01-29T13:56:59.188Z,101589.94
2023-01-29T13:59:54.541Z,101590.84
2023-01-29T14:02:25.022Z,101585.53
2023-01-29T14:04:53.017Z,101580.38
2023-01-29T14:07:40.763Z,101581.19
2023-01-29T14:10:18.211Z,101578.56
2023-01-29T14:12:48.174Z,101568.91
2023-01-29T14:15:39.286Z,101569.91
2023-01-29T14:18:19.372Z,101564.59
2023-01-29T14:20:58.490Z,101567.22
2023-01-29T14:23:35.711Z,101568.19
2023-01-29T14:26:06.372Z,101558.53
2023-01-29T14:28:35.817Z,101558.53
2023-01-29T14:31:07.510Z,101558.53
2023-01-29T14:33:38.030Z,101556.84
2023-01-29T14:36:10.222Z,101554.22
2023-01-29T14:38:39.683Z,101556.00
2023-01-29T14:41:15.337Z,101555.09
2023-01-29T14:43:42.935Z,101549.94
2023-01-29T14:46:46.226Z,101550.03
2023-01-29T14:49:13.810Z,101552.66
2023-01-29T14:51:46.723Z,101546.56
2023-01-29T14:54:23.892Z,101555.34
2023-01-29T14:56:59.427Z,101558.84
2023-01-29T14:59:33.686Z,101550.13
2023-01-29T15:02:13.475Z,101539.69
2023-01-29T15:04:48.049Z,101545.75
2023-01-29T15:07:30.602Z,101534.47
2023-01-29T15:10:21.347Z,101537.91
2023-01-29T15:12:53.431Z,101534.34
2023-01-29T15:15:27.418Z,101529.03
2023-01-29T15:18:02.826Z,101521.91
2023-01-29T15:20:33.171Z,101522.75
2023-01-29T15:23:03.145Z,101510.47
2023-01-29T15:25:36.609Z,101505.94
2023-01-29T15:28:08.489Z,101511.16
2023-01-29T15:30:37.732Z,101510.13
2023-01-29T15:33:10.598Z,101498.66
2023-01-29T15:35:39.580Z,101496.88
2023-01-29T15:38:15.237Z,101495.91
2023-01-29T15:40:51.810Z,101487.91
2023-01-29T15:43:22.518Z,101485.22
2023-01-29T15:45:51.662Z,101477.22
2023-01-29T15:48:26.300Z,101473.63
2023-01-29T15:50:55.741Z,101472.66
2023-01-29T15:53:28.935Z,101464.72
2023-01-29T15:55:59.909Z,101470.78
2023-01-29T15:58:31.377Z,101459.44
2023-01-29T16:01:01.437Z,101455.88
2023-01-29T16:03:33.410Z,101457.63
2023-01-29T16:06:01.531Z,101459.34
2023-01-29T16:08:29.612Z,101449.84
2023-01-29T16:10:59.423Z,101444.63
2023-01-29T16:13:30.771Z,101442.97
2023-01-29T16:16:00.164Z,101444.63
2023-01-29T16:18:35.357Z,101454.28
2023-01-29T16:21:08.753Z,101448.97
2023-01-29T16:23:41.665Z,101442.78
2023-01-29T16:26:13.729Z,101441.03
2023-01-29T16:28:42.399Z,101446.28
2023-01-29T16:31:11.423Z,101441.03
2023-01-29T16:33:45.334Z,101438.34
2023-01-29T16:36:18.326Z,101442.69
2023-01-29T16:38:50.015Z,101434.84
2023-01-29T16:41:30.912Z,101436.63
2023-01-29T16:43:59.845Z,101419.09
2023-01-29T16:46:34.052Z,101431.38
2023-01-29T16:49:03.381Z,101424.38
2023-01-29T16:51:32.280Z,101425.19
2023-01-29T16:54:02.616Z,101419.88
2023-01-29T16:56:33.449Z,101424.22
2023-01-29T16:59:04.512Z,101421.69
2023-01-29T17:01:33.469Z,101422.50
2023-01-29T17:04:08.634Z,101412.03
2023-01-29T17:06:36.924Z,101406.00
2023-01-29T17:09:05.971Z,101400.78
2023-01-29T17:11:36.968Z,101396.34
2023-01-29T17:14:07.333Z,101392.84
2023-01-29T17:16:37.521Z,101394.59
2023-01-29T17:19:20.780Z,101385.66
2023-01-29T17:21:48.657Z,101388.09
2023-01-29T17:24:16.153Z,101373.97
2023-01-29T17:26:43.877Z,101372.97
2023-01-29T17:29:15.472Z,101378.06
2023-01-29T17:31:43.390Z,101371.84
2023-01-29T17:34:14.814Z,101364.78
2023-01-29T17:36:42.397Z,101365.50
2023-01-29T17:39:18.594Z,101361.13
2023-01-29T17:41:48.137Z,101368.00
2023-01-29T17:44:15.812Z,101353.03
2023-01-29T17:46:43.879Z,101348.56
2023-01-29T17:49:23.219Z,101338.84
2023-01-29T17:51:50.977Z,101334.47
2023-01-29T17:54:18.507Z,101337.00
2023-01-29T17:56:46.667Z,101330.78
2023-01-29T17:59:16.719Z,101323.78
2023-01-29T18:01:45.081Z,101320.19
2023-01-29T18:04:13.136Z,101316.59
2023-01-29T18:06:43.404Z,101310.56
2023-01-29T18:09:13.711Z,101300.09
2023-01-29T18:11:41.314Z,101307.94
2023-01-29T18:14:13.647Z,101300.09
2023-01-29T18:16:43.577Z,101306.97
2023-01-29T18:19:17.823Z,101301.75
2023-01-29T18:21:46.686Z,101304.38
2023-01-29T18:24:14.193Z,101305.25
2023-01-29T18:26:41.814Z,101308.75
2023-01-29T18:29:09.856Z,101302.63
2023-01-29T18:31:37.465Z,101300.91
2023-01-29T18:34:05.584Z,101304.53
2023-01-29T18:36:33.155Z,101302.00
2023-01-29T18:39:02.083Z,101302.94
2023-01-29T18:41:29.587Z,101303.09
2023-01-29T18:43:57.284Z,101311.84
2023-01-29T18:46:25.061Z,101295.38
2023-01-29T18:48:52.713Z,101293.69
2023-01-29T18:51:20.256Z,101296.38
2023-01-29T18:53:50.487Z,101293.78
2023-01-29T18:56:20.274Z,101292.94
2023-01-29T18:58:51.987Z,101285.97
2023-01-29T19:01:20.671Z,101284.22
2023-01-29T19:03:48.247Z,101280.63
2023-01-29T19:06:15.803Z,101272.88
2023-01-29T19:08:43.990Z,101277.25
2023-01-29T19:11:12.521Z,101268.38
2023-01-29T19:13:42.815Z,101271.94
2023-01-29T19:16:11.088Z,101270.91
2023-01-29T19:18:39.001Z,101269.19
2023-01-29T19:21:08.898Z,101263.97
2023-01-29T19:23:36.464Z,101263.06
2023-01-29T19:26:04.025Z,101268.22
2023-01-29T19:28:31.949Z,101259.50
2023-01-29T19:31:01.760Z,101269.94
2023-01-29T19:33:29.728Z,101256.88
2023-01-29T19:35:57.675Z,101253.47
2023-01-29T19:38:25.626Z,101249.13
2023-01-29T19:40:55.006Z,101237.78
2023-01-29T19:43:22.726Z,101243.00
2023-01-29T19:45:51.003Z,101239.47
2023-01-29T19:48:21.447Z,101227.38
2023-01-29T19:50:53.325Z,101211.69
2023-01-29T19:53:21.003Z,101209.06
2023-01-29T19:55:48.605Z,101203.84
2023-01-29T19:58:16.266Z,101198.59
2023-01-29T20:00:44.018Z,101199.47
2023-01-29T20:03:11.666Z,101194.25
2023-01-29T20:05:40.532Z,101183.72
2023-01-29T20:08:08.118Z,101190.66
2023-01-29T20:10:37.141Z,101192.28
2023-01-29T20:13:05.977Z,101180.06
2023-01-29T20:15:33.526Z,101181.81
2023-01-29T20:18:01.257Z,101175.66
2023-01-29T20:20:28.999Z,101177.31
2023-01-29T20:23:02.109Z,101172.00
2023-01-29T20:25:31.371Z,101162.41
2023-01-29T20:27:58.929Z,101148.28
2023-01-29T20:30:26.501Z,101141.44
2023-01-29T20:32:54.065Z,101140.44
2023-01-29T20:35:21.664Z,101133.38
2023-01-29T20:37:49.190Z,101129.78
2023-01-29T20:40:18.878Z,101125.38
2023-01-29T20:42:46.608Z,101121.81
2023-01-29T20:45:15.227Z,101126.22
2023-01-29T20:47:43.341Z,101110.59
2023-01-29T20:50:13.350Z,101111.50
2023-01-29T20:52:42.146Z,101098.38
2023-01-29T20:55:11.952Z,101098.38
2023-01-29T20:57:41.140Z,101082.69
2023-01-29T21:00:10.017Z,101073.06
2023-01-29T21:02:37.661Z,101071.22
2023-01-29T21:05:06.749Z,101058.97
2023-01-29T21:07:34.310Z,101058.91
2023-01-29T21:10:01.888Z,101051.00
2023-01-29T21:12:29.447Z,101057.88
2023-01-29T21:14:58.440Z,101049.06
2023-01-29T21:17:28.072Z,101040.34
2023-01-29T21:19:55.712Z,101033.25
2023-01-29T21:22:24.043Z,101032.56
2023-01-29T21:24:51.657Z,101011.63
2023-01-29T21:27:19.226Z,101007.28
2023-01-29T21:29:46.771Z,101006.34
2023-01-29T21:32:16.387Z,101008.94
2023-01-29T21:34:43.934Z,101003.84
2023-01-29T21:37:11.662Z,100999.47
2023-01-29T21:39:39.256Z,100996.78
2023-01-29T21:42:24.692Z,100994.22
2023-01-29T21:44:52.303Z,100988.06
2023-01-29T21:47:22.226Z,100991.41
2023-01-29T21:49:49.881Z,100980.06
2023-01-29T21:52:17.410Z,100975.75
2023-01-29T21:54:49.261Z,100987.91
2023-01-29T21:57:17.698Z,100990.44
2023-01-29T21:59:50.456Z,100989.56
2023-01-29T22:02:23.238Z,100980.81
2023-01-29T22:04:52.301Z,100974.78
2023-01-29T22:07:19.957Z,100974.72
2023-01-29T22:09:47.765Z,100966.88
2023-01-29T22:12:15.755Z,100972.97
2023-01-29T22:14:43.404Z,100977.31
2023-01-29T22:17:11.053Z,100980.00
2023-01-29T22:19:39.958Z,100953.09
2023-01-29T22:22:08.004Z,100939.19
2023-01-29T22:24:35.539Z,100934.84
2023-01-29T22:27:03.075Z,100939.25
2023-01-29T22:29:30.651Z,100924.53
2023-01-29T22:31:58.241Z,100933.31
2023-01-29T22:34:25.917Z,100913.34
2023-01-29T22:36:54.768Z,100913.50
2023-01-29T22:39:22.502Z,100915.31
2023-01-29T22:41:50.391Z,100901.44
2023-01-29T22:44:17.952Z,100901.44
2023-01-29T22:46:45.742Z,100890.09
2023-01-29T22:49:13.336Z,100894.44
2023-01-29T22:51:40.896Z,100893.63
2023-01-29T22:54:09.854Z,100880.56
2023-01-29T22:56:37.398Z,100865.69
2023-01-29T22:59:04.967Z,100860.47
2023-01-29T23:01:33.387Z,100867.50
2023-01-29T23:04:00.951Z,100862.28
2023-01-29T23:06:28.470Z,100868.38
2023-01-29T23:08:56.193Z,100862.44
2023-01-29T23:11:25.050Z,100851.19
2023-01-29T23:13:54.145Z,100844.16
2023-01-29T23:16:26.838Z,100837.19
2023-01-29T23:18:56.161Z,100838.91
2023-01-29T23:21:25.325Z,100842.41
2023-01-29T23:23:55.333Z,100829.34
2023-01-29T23:26:40.642Z,100827.53
2023-01-29T23:29:10.051Z,100817.03
2023-01-29T23:31:37.700Z,100817.03
2023-01-29T23:34:05.351Z,100817.94
2023-01-29T23:36:33.379Z,100816.97
2023-01-29T23:39:00.964Z,100815.25
2023-01-29T23:41:29.374Z,100811.75
2023-01-29T23:43:56.981Z,100816.97
2023-01-29T23:46:25.961Z,100804.75
2023-01-29T23:48:53.617Z,100793.41
2023-01-29T23:51:21.259Z,100798.63
2023-01-29T23:53:48.856Z,100795.19
2023-01-29T23:56:16.387Z,100777.91
2023-01-29T23:58:44.768Z,100767.66
